sensor_id;sensor_type;location;lat;lon;timestamp;temperature;humidity
11609;DHT22;5860;52.018;8.536;2022-10-01T00:02:01;11.30;99.90
11609;DHT22;5860;52.018;8.536;2022-10-01T00:04:28;11.20;99.90
11609;DHT22;5860;52.018;8.536;2022-10-01T00:06:54;11.30;99.90
11609;DHT22;5860;52.018;8.536;2022-10-01T00:09:25;11.30;99.90
11609;DHT22;5860;52.018;8.536;2022-10-01T00:11:52;11.30;99.90
11609;DHT22;5860;52.018;8.536;2022-10-01T00:14:19;11.30;99.90
11609;DHT22;5860;52.018;8.536;2022-10-01T00:16:46;11.30;99.90
11609;DHT22;5860;52.018;8.536;2022-10-01T00:19:13;11.30;99.90
11609;DHT22;5860;52.018;8.536;2022-10-01T00:21:41;11.30;99.90
11609;DHT22;5860;52.018;8.536;2022-10-01T00:24:11;11.40;99.90
11609;DHT22;5860;52.018;8.536;2022-10-01T00:26:38;11.30;99.90
11609;DHT22;5860;52.018;8.536;2022-10-01T00:29:10;11.30;99.90
11609;DHT22;5860;52.018;8.536;2022-10-01T00:31:37;11.30;99.90
11609;DHT22;5860;52.018;8.536;2022-10-01T00:34:05;11.30;99.90
11609;DHT22;5860;52.018;8.536;2022-10-01T00:36:32;11.30;99.90
11609;DHT22;5860;52.018;8.536;2022-10-01T00:38:59;11.40;99.90
11609;DHT22;5860;52.018;8.536;2022-10-01T00:41:29;11.40;99.90
11609;DHT22;5860;52.018;8.536;2022-10-01T00:44:02;11.40;99.90
11609;DHT22;5860;52.018;8.536;2022-10-01T00:46:43;11.40;99.90
11609;DHT22;5860;52.018;8.536;2022-10-01T00:49:15;11.40;99.90
11609;DHT22;5860;52.018;8.536;2022-10-01T00:51:47;11.50;99.90
11609;DHT22;5860;52.018;8.536;2022-10-01T00:54:21;11.50;99.90
11609;DHT22;5860;52.018;8.536;2022-10-01T00:56:50;11.50;99.90
11609;DHT22;5860;52.018;8.536;2022-10-01T00:59:18;11.50;99.90
11609;DHT22;5860;52.018;8.536;2022-10-01T01:01:45;11.50;99.90
11609;DHT22;5860;52.018;8.536;2022-10-01T01:04:13;11.60;99.90
11609;DHT22;5860;52.018;8.536;2022-10-01T01:06:45;11.60;99.90
11609;DHT22;5860;52.018;8.536;2022-10-01T01:09:13;11.60;99.90
11609;DHT22;5860;52.018;8.536;2022-10-01T01:15:11;11.60;99.90
11609;DHT22;5860;52.018;8.536;2022-10-01T01:17:44;11.60;99.90
11609;DHT22;5860;52.018;8.536;2022-10-01T01:25:47;11.70;99.90
11609;DHT22;5860;52.018;8.536;2022-10-01T01:28:23;11.70;99.90
11609;DHT22;5860;52.018;8.536;2022-10-01T01:30:54;11.80;99.90
11609;DHT22;5860;52.018;8.536;2022-10-01T01:33:23;11.70;99.90
11609;DHT22;5860;52.018;8.536;2022-10-01T01:36:03;11.80;99.90
11609;DHT22;5860;52.018;8.536;2022-10-01T01:38:35;11.90;99.90
11609;DHT22;5860;52.018;8.536;2022-10-01T01:41:05;11.80;99.90
11609;DHT22;5860;52.018;8.536;2022-10-01T01:43:43;11.90;99.90
11609;DHT22;5860;52.018;8.536;2022-10-01T01:46:12;11.90;99.90
11609;DHT22;5860;52.018;8.536;2022-10-01T01:48:41;11.90;99.90
11609;DHT22;5860;52.018;8.536;2022-10-01T01:51:15;11.90;99.90
11609;DHT22;5860;52.018;8.536;2022-10-01T01:53:42;12.00;99.90
11609;DHT22;5860;52.018;8.536;2022-10-01T01:56:09;12.00;99.90
11609;DHT22;5860;52.018;8.536;2022-10-01T01:58:37;11.90;99.90
11609;DHT22;5860;52.018;8.536;2022-10-01T02:01:04;11.90;99.90
11609;DHT22;5860;52.018;8.536;2022-10-01T02:03:33;11.90;99.90
11609;DHT22;5860;52.018;8.536;2022-10-01T02:06:21;12.00;99.90
11609;DHT22;5860;52.018;8.536;2022-10-01T02:09:20;12.00;99.90
11609;DHT22;5860;52.018;8.536;2022-10-01T02:17:28;12.00;99.90
11609;DHT22;5860;52.018;8.536;2022-10-01T02:20:14;12.00;99.90
11609;DHT22;5860;52.018;8.536;2022-10-01T02:23:26;12.10;99.90
11609;DHT22;5860;52.018;8.536;2022-10-01T02:25:49;12.10;99.90
11609;DHT22;5860;52.018;8.536;2022-10-01T02:28:20;12.10;99.90
11609;DHT22;5860;52.018;8.536;2022-10-01T02:30:50;12.00;99.90
11609;DHT22;5860;52.018;8.536;2022-10-01T02:33:23;11.90;99.90
11609;DHT22;5860;52.018;8.536;2022-10-01T02:35:52;11.70;99.90
11609;DHT22;5860;52.018;8.536;2022-10-01T02:38:21;11.70;99.90
11609;DHT22;5860;52.018;8.536;2022-10-01T02:40:53;11.60;99.90
11609;DHT22;5860;52.018;8.536;2022-10-01T02:43:26;11.40;99.90
11609;DHT22;5860;52.018;8.536;2022-10-01T02:46:14;11.20;99.90
11609;DHT22;5860;52.018;8.536;2022-10-01T02:48:43;11.20;99.90
11609;DHT22;5860;52.018;8.536;2022-10-01T02:51:27;11.10;99.90
11609;DHT22;5860;52.018;8.536;2022-10-01T02:54:00;11.00;99.90
11609;DHT22;5860;52.018;8.536;2022-10-01T02:56:27;11.00;99.90
11609;DHT22;5860;52.018;8.536;2022-10-01T02:59:14;10.90;99.90
11609;DHT22;5860;52.018;8.536;2022-10-01T03:01:41;10.80;99.90
11609;DHT22;5860;52.018;8.536;2022-10-01T03:04:08;10.80;99.90
11609;DHT22;5860;52.018;8.536;2022-10-01T03:06:35;10.70;99.90
11609;DHT22;5860;52.018;8.536;2022-10-01T03:09:02;10.70;99.90
11609;DHT22;5860;52.018;8.536;2022-10-01T03:11:29;10.70;99.90
11609;DHT22;5860;52.018;8.536;2022-10-01T03:13:56;10.70;99.90
11609;DHT22;5860;52.018;8.536;2022-10-01T03:16:23;10.60;99.90
11609;DHT22;5860;52.018;8.536;2022-10-01T03:18:50;10.60;99.90
11609;DHT22;5860;52.018;8.536;2022-10-01T03:21:17;10.60;99.90
11609;DHT22;5860;52.018;8.536;2022-10-01T03:23:44;10.60;99.90
11609;DHT22;5860;52.018;8.536;2022-10-01T03:26:11;10.60;99.90
11609;DHT22;5860;52.018;8.536;2022-10-01T03:28:38;10.60;99.90
11609;DHT22;5860;52.018;8.536;2022-10-01T03:31:06;10.60;99.90
11609;DHT22;5860;52.018;8.536;2022-10-01T03:33:34;10.60;99.90
11609;DHT22;5860;52.018;8.536;2022-10-01T03:36:02;10.60;99.90
11609;DHT22;5860;52.018;8.536;2022-10-01T03:38:29;10.60;99.90
11609;DHT22;5860;52.018;8.536;2022-10-01T03:40:56;10.60;99.90
11609;DHT22;5860;52.018;8.536;2022-10-01T03:43:23;10.60;99.90
11609;DHT22;5860;52.018;8.536;2022-10-01T03:45:51;10.60;99.90
11609;DHT22;5860;52.018;8.536;2022-10-01T03:48:18;10.60;99.90
11609;DHT22;5860;52.018;8.536;2022-10-01T03:50:56;10.50;99.90
11609;DHT22;5860;52.018;8.536;2022-10-01T03:53:25;10.50;99.90
11609;DHT22;5860;52.018;8.536;2022-10-01T03:55:53;10.60;99.90
11609;DHT22;5860;52.018;8.536;2022-10-01T03:58:20;10.50;99.90
11609;DHT22;5860;52.018;8.536;2022-10-01T04:00:49;10.60;99.90
11609;DHT22;5860;52.018;8.536;2022-10-01T04:03:17;10.60;99.90
11609;DHT22;5860;52.018;8.536;2022-10-01T04:05:44;10.60;99.90
11609;DHT22;5860;52.018;8.536;2022-10-01T04:08:13;10.50;99.90
11609;DHT22;5860;52.018;8.536;2022-10-01T04:10:40;10.60;99.90
11609;DHT22;5860;52.018;8.536;2022-10-01T04:13:09;10.60;99.90
11609;DHT22;5860;52.018;8.536;2022-10-01T04:15:36;10.60;99.90
11609;DHT22;5860;52.018;8.536;2022-10-01T04:18:03;10.60;99.90
11609;DHT22;5860;52.018;8.536;2022-10-01T04:20:35;10.60;99.90
11609;DHT22;5860;52.018;8.536;2022-10-01T04:23:05;10.60;99.90
11609;DHT22;5860;52.018;8.536;2022-10-01T04:25:32;10.60;99.90
11609;DHT22;5860;52.018;8.536;2022-10-01T04:28:01;10.60;99.90
11609;DHT22;5860;52.018;8.536;2022-10-01T04:30:31;10.60;99.90
11609;DHT22;5860;52.018;8.536;2022-10-01T04:32:58;10.60;99.90
11609;DHT22;5860;52.018;8.536;2022-10-01T04:35:25;10.60;99.90
11609;DHT22;5860;52.018;8.536;2022-10-01T04:38:06;10.60;99.90
11609;DHT22;5860;52.018;8.536;2022-10-01T04:40:34;10.60;99.90
11609;DHT22;5860;52.018;8.536;2022-10-01T04:43:02;10.70;99.90
11609;DHT22;5860;52.018;8.536;2022-10-01T04:45:30;10.70;99.90
11609;DHT22;5860;52.018;8.536;2022-10-01T04:47:57;10.60;99.90
11609;DHT22;5860;52.018;8.536;2022-10-01T04:50:25;10.60;99.90
11609;DHT22;5860;52.018;8.536;2022-10-01T04:52:52;10.70;99.90
11609;DHT22;5860;52.018;8.536;2022-10-01T04:55:20;10.70;99.90
11609;DHT22;5860;52.018;8.536;2022-10-01T04:57:47;10.70;99.90
11609;DHT22;5860;52.018;8.536;2022-10-01T05:00:20;10.70;99.90
11609;DHT22;5860;52.018;8.536;2022-10-01T05:02:48;10.70;99.90
11609;DHT22;5860;52.018;8.536;2022-10-01T05:05:17;10.70;99.90
11609;DHT22;5860;52.018;8.536;2022-10-01T05:07:45;10.80;99.90
11609;DHT22;5860;52.018;8.536;2022-10-01T05:10:15;10.70;99.90
11609;DHT22;5860;52.018;8.536;2022-10-01T05:12:43;10.70;99.90
11609;DHT22;5860;52.018;8.536;2022-10-01T05:15:10;10.70;99.90
11609;DHT22;5860;52.018;8.536;2022-10-01T05:17:37;10.70;99.90
11609;DHT22;5860;52.018;8.536;2022-10-01T05:20:06;10.80;99.90
11609;DHT22;5860;52.018;8.536;2022-10-01T05:22:33;10.80;99.90
11609;DHT22;5860;52.018;8.536;2022-10-01T05:25:00;10.80;99.90
11609;DHT22;5860;52.018;8.536;2022-10-01T05:27:29;10.80;99.90
11609;DHT22;5860;52.018;8.536;2022-10-01T05:29:56;10.80;99.90
11609;DHT22;5860;52.018;8.536;2022-10-01T05:32:23;10.80;99.90
11609;DHT22;5860;52.018;8.536;2022-10-01T05:34:50;10.90;99.90
11609;DHT22;5860;52.018;8.536;2022-10-01T05:37:19;10.90;99.90
11609;DHT22;5860;52.018;8.536;2022-10-01T05:39:46;10.90;99.90
11609;DHT22;5860;52.018;8.536;2022-10-01T05:42:13;10.90;99.90
11609;DHT22;5860;52.018;8.536;2022-10-01T05:44:40;10.90;99.90
11609;DHT22;5860;52.018;8.536;2022-10-01T05:47:13;10.90;99.90
11609;DHT22;5860;52.018;8.536;2022-10-01T05:49:40;11.00;99.90
11609;DHT22;5860;52.018;8.536;2022-10-01T05:52:11;11.00;99.90
11609;DHT22;5860;52.018;8.536;2022-10-01T05:54:38;11.00;99.90
11609;DHT22;5860;52.018;8.536;2022-10-01T05:57:05;11.00;99.90
11609;DHT22;5860;52.018;8.536;2022-10-01T05:59:34;11.10;99.90
11609;DHT22;5860;52.018;8.536;2022-10-01T06:02:01;11.10;99.90
11609;DHT22;5860;52.018;8.536;2022-10-01T06:04:29;11.10;99.90
11609;DHT22;5860;52.018;8.536;2022-10-01T06:06:56;11.20;99.90
11609;DHT22;5860;52.018;8.536;2022-10-01T06:09:23;11.20;99.90
11609;DHT22;5860;52.018;8.536;2022-10-01T06:11:50;11.20;99.90
11609;DHT22;5860;52.018;8.536;2022-10-01T06:14:16;11.20;99.90
11609;DHT22;5860;52.018;8.536;2022-10-01T06:16:43;11.30;99.90
11609;DHT22;5860;52.018;8.536;2022-10-01T06:19:10;11.30;99.90
11609;DHT22;5860;52.018;8.536;2022-10-01T06:21:37;11.30;99.90
11609;DHT22;5860;52.018;8.536;2022-10-01T06:24:04;11.40;99.90
11609;DHT22;5860;52.018;8.536;2022-10-01T06:26:31;11.40;99.90
11609;DHT22;5860;52.018;8.536;2022-10-01T06:28:58;11.40;99.90
11609;DHT22;5860;52.018;8.536;2022-10-01T06:31:24;11.50;99.90
11609;DHT22;5860;52.018;8.536;2022-10-01T06:33:51;11.50;99.90
11609;DHT22;5860;52.018;8.536;2022-10-01T06:36:18;11.50;99.90
11609;DHT22;5860;52.018;8.536;2022-10-01T06:38:48;11.50;99.90
11609;DHT22;5860;52.018;8.536;2022-10-01T06:41:15;11.50;99.90
11609;DHT22;5860;52.018;8.536;2022-10-01T06:43:42;11.50;99.90
11609;DHT22;5860;52.018;8.536;2022-10-01T06:46:09;11.60;99.90
11609;DHT22;5860;52.018;8.536;2022-10-01T06:48:36;11.60;99.90
11609;DHT22;5860;52.018;8.536;2022-10-01T06:51:03;11.60;99.90
11609;DHT22;5860;52.018;8.536;2022-10-01T06:53:31;11.60;99.90
11609;DHT22;5860;52.018;8.536;2022-10-01T06:56:06;11.70;99.90
11609;DHT22;5860;52.018;8.536;2022-10-01T06:58:33;11.70;99.90
11609;DHT22;5860;52.018;8.536;2022-10-01T07:01:01;11.70;99.90
11609;DHT22;5860;52.018;8.536;2022-10-01T07:03:30;11.80;99.90
11609;DHT22;5860;52.018;8.536;2022-10-01T07:06:04;11.70;99.90
11609;DHT22;5860;52.018;8.536;2022-10-01T07:08:33;11.70;99.90
11609;DHT22;5860;52.018;8.536;2022-10-01T07:11:01;11.70;99.90
11609;DHT22;5860;52.018;8.536;2022-10-01T07:13:28;11.70;99.90
11609;DHT22;5860;52.018;8.536;2022-10-01T07:15:55;11.80;99.90
11609;DHT22;5860;52.018;8.536;2022-10-01T07:18:22;11.80;99.90
11609;DHT22;5860;52.018;8.536;2022-10-01T07:20:49;11.80;99.90
11609;DHT22;5860;52.018;8.536;2022-10-01T07:23:16;11.80;99.90
11609;DHT22;5860;52.018;8.536;2022-10-01T07:25:43;11.80;99.90
11609;DHT22;5860;52.018;8.536;2022-10-01T07:28:16;11.90;99.90
11609;DHT22;5860;52.018;8.536;2022-10-01T07:30:59;11.90;99.90
11609;DHT22;5860;52.018;8.536;2022-10-01T07:33:27;11.90;99.90
11609;DHT22;5860;52.018;8.536;2022-10-01T07:35:54;12.00;99.90
11609;DHT22;5860;52.018;8.536;2022-10-01T07:38:21;12.00;99.90
11609;DHT22;5860;52.018;8.536;2022-10-01T07:40:52;11.90;99.90
11609;DHT22;5860;52.018;8.536;2022-10-01T07:43:20;12.00;99.90
11609;DHT22;5860;52.018;8.536;2022-10-01T07:45:47;12.00;99.90
11609;DHT22;5860;52.018;8.536;2022-10-01T07:48:21;12.10;99.90
11609;DHT22;5860;52.018;8.536;2022-10-01T07:50:48;12.10;99.90
11609;DHT22;5860;52.018;8.536;2022-10-01T07:53:19;12.10;99.90
11609;DHT22;5860;52.018;8.536;2022-10-01T07:55:46;12.20;99.90
11609;DHT22;5860;52.018;8.536;2022-10-01T07:58:16;12.20;99.90
11609;DHT22;5860;52.018;8.536;2022-10-01T08:00:44;12.20;99.90
11609;DHT22;5860;52.018;8.536;2022-10-01T08:03:12;12.30;99.90
11609;DHT22;5860;52.018;8.536;2022-10-01T08:05:40;12.30;99.90
11609;DHT22;5860;52.018;8.536;2022-10-01T08:08:09;12.30;99.90
11609;DHT22;5860;52.018;8.536;2022-10-01T08:10:37;12.30;99.90
11609;DHT22;5860;52.018;8.536;2022-10-01T08:13:11;12.40;99.90
11609;DHT22;5860;52.018;8.536;2022-10-01T08:15:45;12.40;99.90
11609;DHT22;5860;52.018;8.536;2022-10-01T08:18:13;12.50;99.90
11609;DHT22;5860;52.018;8.536;2022-10-01T08:20:41;12.50;99.90
11609;DHT22;5860;52.018;8.536;2022-10-01T08:23:10;12.50;99.90
11609;DHT22;5860;52.018;8.536;2022-10-01T08:25:39;12.50;99.90
11609;DHT22;5860;52.018;8.536;2022-10-01T08:28:08;12.60;99.90
11609;DHT22;5860;52.018;8.536;2022-10-01T08:30:37;12.60;99.90
11609;DHT22;5860;52.018;8.536;2022-10-01T08:33:06;12.60;99.90
11609;DHT22;5860;52.018;8.536;2022-10-01T08:35:38;12.70;99.90
11609;DHT22;5860;52.018;8.536;2022-10-01T08:38:06;12.70;99.90
11609;DHT22;5860;52.018;8.536;2022-10-01T08:40:35;12.70;99.90
11609;DHT22;5860;52.018;8.536;2022-10-01T08:43:31;12.80;99.90
11609;DHT22;5860;52.018;8.536;2022-10-01T08:46:03;12.80;99.90
11609;DHT22;5860;52.018;8.536;2022-10-01T08:49:02;12.90;99.90
11609;DHT22;5860;52.018;8.536;2022-10-01T08:52:17;13.00;99.90
11609;DHT22;5860;52.018;8.536;2022-10-01T08:54:56;13.20;99.90
11609;DHT22;5860;52.018;8.536;2022-10-01T08:57:31;13.00;99.90
11609;DHT22;5860;52.018;8.536;2022-10-01T09:00:02;13.00;99.90
11609;DHT22;5860;52.018;8.536;2022-10-01T09:02:37;13.00;99.90
11609;DHT22;5860;52.018;8.536;2022-10-01T09:05:15;13.10;99.90
11609;DHT22;5860;52.018;8.536;2022-10-01T09:16:28;13.20;99.90
11609;DHT22;5860;52.018;8.536;2022-10-01T09:19:09;13.40;99.90
11609;DHT22;5860;52.018;8.536;2022-10-01T09:21:45;13.60;99.90
11609;DHT22;5860;52.018;8.536;2022-10-01T09:24:39;13.60;99.90
11609;DHT22;5860;52.018;8.536;2022-10-01T09:27:16;13.50;99.90
11609;DHT22;5860;52.018;8.536;2022-10-01T09:32:55;13.40;99.90
11609;DHT22;5860;52.018;8.536;2022-10-01T09:35:49;13.60;99.90
11609;DHT22;5860;52.018;8.536;2022-10-01T09:38:31;13.70;99.90
11609;DHT22;5860;52.018;8.536;2022-10-01T09:41:00;13.90;99.90
11609;DHT22;5860;52.018;8.536;2022-10-01T09:43:35;13.90;99.90
11609;DHT22;5860;52.018;8.536;2022-10-01T09:46:04;13.70;99.90
11609;DHT22;5860;52.018;8.536;2022-10-01T09:49:12;13.70;99.90
11609;DHT22;5860;52.018;8.536;2022-10-01T09:51:46;13.70;99.90
11609;DHT22;5860;52.018;8.536;2022-10-01T09:54:44;13.90;99.90
11609;DHT22;5860;52.018;8.536;2022-10-01T10:00:30;13.90;99.90
11609;DHT22;5860;52.018;8.536;2022-10-01T10:02:55;13.80;99.90
11609;DHT22;5860;52.018;8.536;2022-10-01T10:05:25;13.90;99.90
11609;DHT22;5860;52.018;8.536;2022-10-01T10:07:56;14.00;99.90
11609;DHT22;5860;52.018;8.536;2022-10-01T10:10:34;14.00;99.90
11609;DHT22;5860;52.018;8.536;2022-10-01T10:13:16;14.10;99.90
11609;DHT22;5860;52.018;8.536;2022-10-01T10:15:55;14.40;99.90
11609;DHT22;5860;52.018;8.536;2022-10-01T10:18:30;14.40;99.90
11609;DHT22;5860;52.018;8.536;2022-10-01T10:21:15;14.30;99.90
11609;DHT22;5860;52.018;8.536;2022-10-01T10:23:54;14.20;99.90
11609;DHT22;5860;52.018;8.536;2022-10-01T10:26:38;14.30;99.90
11609;DHT22;5860;52.018;8.536;2022-10-01T10:29:23;14.50;99.90
11609;DHT22;5860;52.018;8.536;2022-10-01T10:31:50;14.40;99.90
11609;DHT22;5860;52.018;8.536;2022-10-01T10:34:20;14.70;99.90
11609;DHT22;5860;52.018;8.536;2022-10-01T10:36:59;14.70;99.90
11609;DHT22;5860;52.018;8.536;2022-10-01T10:39:36;14.70;99.90
11609;DHT22;5860;52.018;8.536;2022-10-01T10:42:05;14.70;99.90
11609;DHT22;5860;52.018;8.536;2022-10-01T10:44:37;14.90;99.90
11609;DHT22;5860;52.018;8.536;2022-10-01T10:47:11;14.80;99.90
11609;DHT22;5860;52.018;8.536;2022-10-01T10:49:44;14.80;99.90
11609;DHT22;5860;52.018;8.536;2022-10-01T10:52:25;14.80;99.90
11609;DHT22;5860;52.018;8.536;2022-10-01T10:54:57;14.90;99.90
11609;DHT22;5860;52.018;8.536;2022-10-01T10:57:34;15.00;99.90
11609;DHT22;5860;52.018;8.536;2022-10-01T11:00:21;15.10;99.90
11609;DHT22;5860;52.018;8.536;2022-10-01T11:02:57;15.10;99.90
11609;DHT22;5860;52.018;8.536;2022-10-01T11:05:27;15.10;99.90
11609;DHT22;5860;52.018;8.536;2022-10-01T11:07:58;15.10;99.90
11609;DHT22;5860;52.018;8.536;2022-10-01T11:13:30;15.30;99.90
11609;DHT22;5860;52.018;8.536;2022-10-01T11:24:59;15.30;99.90
11609;DHT22;5860;52.018;8.536;2022-10-01T11:32:52;14.90;99.90
11609;DHT22;5860;52.018;8.536;2022-10-01T11:35:40;15.00;99.90
11609;DHT22;5860;52.018;8.536;2022-10-01T11:38:33;15.20;99.90
11609;DHT22;5860;52.018;8.536;2022-10-01T11:41:13;15.60;99.90
11609;DHT22;5860;52.018;8.536;2022-10-01T11:43:43;15.60;99.90
11609;DHT22;5860;52.018;8.536;2022-10-01T11:46:24;15.70;99.90
11609;DHT22;5860;52.018;8.536;2022-10-01T11:48:55;15.90;99.90
11609;DHT22;5860;52.018;8.536;2022-10-01T11:51:32;15.90;99.90
11609;DHT22;5860;52.018;8.536;2022-10-01T11:54:06;15.90;99.90
11609;DHT22;5860;52.018;8.536;2022-10-01T11:56:46;15.70;99.90
11609;DHT22;5860;52.018;8.536;2022-10-01T11:59:53;15.70;99.90
11609;DHT22;5860;52.018;8.536;2022-10-01T12:05:17;15.80;99.90
11609;DHT22;5860;52.018;8.536;2022-10-01T12:07:47;15.80;99.90
11609;DHT22;5860;52.018;8.536;2022-10-01T12:13:29;15.80;99.90
11609;DHT22;5860;52.018;8.536;2022-10-01T12:19:14;15.60;99.90
11609;DHT22;5860;52.018;8.536;2022-10-01T12:21:58;15.30;99.90
11609;DHT22;5860;52.018;8.536;2022-10-01T12:24:35;15.30;99.90
11609;DHT22;5860;52.018;8.536;2022-10-01T12:35:59;15.90;99.90
11609;DHT22;5860;52.018;8.536;2022-10-01T12:44:26;15.30;99.90
11609;DHT22;5860;52.018;8.536;2022-10-01T12:58:06;15.10;99.90
11609;DHT22;5860;52.018;8.536;2022-10-01T13:09:04;15.80;99.90
11609;DHT22;5860;52.018;8.536;2022-10-01T13:11:47;15.80;99.90
11609;DHT22;5860;52.018;8.536;2022-10-01T13:14:18;15.80;99.90
11609;DHT22;5860;52.018;8.536;2022-10-01T13:16:58;16.00;99.90
11609;DHT22;5860;52.018;8.536;2022-10-01T13:22:40;16.50;99.90
11609;DHT22;5860;52.018;8.536;2022-10-01T13:25:35;16.60;99.90
11609;DHT22;5860;52.018;8.536;2022-10-01T13:28:59;16.50;99.90
11609;DHT22;5860;52.018;8.536;2022-10-01T13:31:17;16.40;99.90
11609;DHT22;5860;52.018;8.536;2022-10-01T13:33:54;16.50;99.90
11609;DHT22;5860;52.018;8.536;2022-10-01T13:36:33;16.30;99.90
11609;DHT22;5860;52.018;8.536;2022-10-01T13:39:00;16.40;99.90
11609;DHT22;5860;52.018;8.536;2022-10-01T13:41:31;17.10;99.90
11609;DHT22;5860;52.018;8.536;2022-10-01T13:46:46;17.00;99.90
11609;DHT22;5860;52.018;8.536;2022-10-01T13:49:26;17.00;99.90
11609;DHT22;5860;52.018;8.536;2022-10-01T13:51:54;16.90;99.90
11609;DHT22;5860;52.018;8.536;2022-10-01T13:54:46;16.50;99.90
11609;DHT22;5860;52.018;8.536;2022-10-01T13:57:37;15.10;99.90
11609;DHT22;5860;52.018;8.536;2022-10-01T14:02:39;14.20;99.90
11609;DHT22;5860;52.018;8.536;2022-10-01T14:11:09;13.10;99.90
11609;DHT22;5860;52.018;8.536;2022-10-01T14:14:01;13.50;99.90
11609;DHT22;5860;52.018;8.536;2022-10-01T14:16:48;14.00;99.90
11609;DHT22;5860;52.018;8.536;2022-10-01T14:19:19;14.30;99.90
11609;DHT22;5860;52.018;8.536;2022-10-01T14:37:44;13.60;99.90
11609;DHT22;5860;52.018;8.536;2022-10-01T14:40:20;13.50;99.90
11609;DHT22;5860;52.018;8.536;2022-10-01T14:43:02;13.50;99.90
11609;DHT22;5860;52.018;8.536;2022-10-01T14:45:32;13.60;99.90
11609;DHT22;5860;52.018;8.536;2022-10-01T14:48:04;13.60;99.90
11609;DHT22;5860;52.018;8.536;2022-10-01T14:50:34;13.60;99.90
11609;DHT22;5860;52.018;8.536;2022-10-01T14:53:03;13.70;99.90
11609;DHT22;5860;52.018;8.536;2022-10-01T14:55:31;13.80;99.90
11609;DHT22;5860;52.018;8.536;2022-10-01T14:58:00;13.90;99.90
11609;DHT22;5860;52.018;8.536;2022-10-01T15:00:28;14.00;99.90
11609;DHT22;5860;52.018;8.536;2022-10-01T15:03:13;14.10;99.90
11609;DHT22;5860;52.018;8.536;2022-10-01T15:05:45;14.20;99.90
11609;DHT22;5860;52.018;8.536;2022-10-01T15:08:20;14.30;99.90
11609;DHT22;5860;52.018;8.536;2022-10-01T15:10:56;14.30;99.90
11609;DHT22;5860;52.018;8.536;2022-10-01T15:13:34;14.30;99.90
11609;DHT22;5860;52.018;8.536;2022-10-01T15:16:04;14.20;99.90
11609;DHT22;5860;52.018;8.536;2022-10-01T15:18:31;14.10;99.90
11609;DHT22;5860;52.018;8.536;2022-10-01T15:21:04;14.00;99.90
11609;DHT22;5860;52.018;8.536;2022-10-01T15:23:34;14.00;99.90
11609;DHT22;5860;52.018;8.536;2022-10-01T15:26:07;13.90;99.90
11609;DHT22;5860;52.018;8.536;2022-10-01T15:28:35;14.00;99.90
11609;DHT22;5860;52.018;8.536;2022-10-01T15:31:04;14.00;99.90
11609;DHT22;5860;52.018;8.536;2022-10-01T15:33:34;14.10;99.90
11609;DHT22;5860;52.018;8.536;2022-10-01T15:36:03;14.10;99.90
11609;DHT22;5860;52.018;8.536;2022-10-01T15:38:32;14.10;99.90
11609;DHT22;5860;52.018;8.536;2022-10-01T15:41:01;14.20;99.90
11609;DHT22;5860;52.018;8.536;2022-10-01T15:43:48;14.40;99.90
11609;DHT22;5860;52.018;8.536;2022-10-01T15:46:18;14.30;99.90
11609;DHT22;5860;52.018;8.536;2022-10-01T15:48:46;14.40;99.90
11609;DHT22;5860;52.018;8.536;2022-10-01T15:53:45;14.40;99.90
11609;DHT22;5860;52.018;8.536;2022-10-01T15:56:15;14.40;99.90
11609;DHT22;5860;52.018;8.536;2022-10-01T15:58:52;14.40;99.90
11609;DHT22;5860;52.018;8.536;2022-10-01T16:01:23;14.40;99.90
11609;DHT22;5860;52.018;8.536;2022-10-01T16:09:21;14.30;99.90
11609;DHT22;5860;52.018;8.536;2022-10-01T16:12:01;14.30;99.90
11609;DHT22;5860;52.018;8.536;2022-10-01T16:14:37;14.30;99.90
11609;DHT22;5860;52.018;8.536;2022-10-01T16:24:42;14.00;99.90
11609;DHT22;5860;52.018;8.536;2022-10-01T16:27:16;14.00;99.90
11609;DHT22;5860;52.018;8.536;2022-10-01T16:29:54;14.00;99.90
11609;DHT22;5860;52.018;8.536;2022-10-01T16:32:21;13.90;99.90
11609;DHT22;5860;52.018;8.536;2022-10-01T16:34:48;13.90;99.90
11609;DHT22;5860;52.018;8.536;2022-10-01T16:37:15;13.90;99.90
11609;DHT22;5860;52.018;8.536;2022-10-01T16:39:42;13.90;99.90
11609;DHT22;5860;52.018;8.536;2022-10-01T16:42:19;13.90;99.90
11609;DHT22;5860;52.018;8.536;2022-10-01T16:44:50;13.90;99.90
11609;DHT22;5860;52.018;8.536;2022-10-01T16:47:17;13.90;99.90
11609;DHT22;5860;52.018;8.536;2022-10-01T16:49:45;13.90;99.90
11609;DHT22;5860;52.018;8.536;2022-10-01T16:52:13;13.80;99.90
11609;DHT22;5860;52.018;8.536;2022-10-01T16:54:42;13.90;99.90
11609;DHT22;5860;52.018;8.536;2022-10-01T16:57:10;13.80;99.90
11609;DHT22;5860;52.018;8.536;2022-10-01T16:59:36;13.80;99.90
11609;DHT22;5860;52.018;8.536;2022-10-01T17:02:03;13.90;99.90
11609;DHT22;5860;52.018;8.536;2022-10-01T17:04:30;13.90;99.90
11609;DHT22;5860;52.018;8.536;2022-10-01T17:06:59;14.00;99.90
11609;DHT22;5860;52.018;8.536;2022-10-01T17:09:26;13.90;99.90
11609;DHT22;5860;52.018;8.536;2022-10-01T17:11:53;13.80;99.90
11609;DHT22;5860;52.018;8.536;2022-10-01T17:14:21;13.80;99.90
11609;DHT22;5860;52.018;8.536;2022-10-01T17:16:48;13.70;99.90
11609;DHT22;5860;52.018;8.536;2022-10-01T17:19:17;13.60;99.90
11609;DHT22;5860;52.018;8.536;2022-10-01T17:21:44;13.60;99.90
11609;DHT22;5860;52.018;8.536;2022-10-01T17:24:11;13.60;99.90
11609;DHT22;5860;52.018;8.536;2022-10-01T17:26:40;13.60;99.90
11609;DHT22;5860;52.018;8.536;2022-10-01T17:29:08;13.60;99.90
11609;DHT22;5860;52.018;8.536;2022-10-01T17:31:37;13.60;99.90
11609;DHT22;5860;52.018;8.536;2022-10-01T17:34:04;13.60;99.90
11609;DHT22;5860;52.018;8.536;2022-10-01T17:36:31;13.80;99.90
11609;DHT22;5860;52.018;8.536;2022-10-01T17:38:58;13.80;99.90
11609;DHT22;5860;52.018;8.536;2022-10-01T17:41:26;13.80;99.90
11609;DHT22;5860;52.018;8.536;2022-10-01T17:43:53;13.80;99.90
11609;DHT22;5860;52.018;8.536;2022-10-01T17:46:20;13.70;99.90
11609;DHT22;5860;52.018;8.536;2022-10-01T17:48:47;13.60;99.90
11609;DHT22;5860;52.018;8.536;2022-10-01T17:51:15;13.50;99.90
11609;DHT22;5860;52.018;8.536;2022-10-01T17:53:42;13.50;99.90
11609;DHT22;5860;52.018;8.536;2022-10-01T17:56:13;13.50;99.90
11609;DHT22;5860;52.018;8.536;2022-10-01T17:58:41;13.60;99.90
11609;DHT22;5860;52.018;8.536;2022-10-01T18:01:18;13.60;99.90
11609;DHT22;5860;52.018;8.536;2022-10-01T18:03:45;13.60;99.90
11609;DHT22;5860;52.018;8.536;2022-10-01T18:06:12;13.50;99.90
11609;DHT22;5860;52.018;8.536;2022-10-01T18:08:42;13.50;99.90
11609;DHT22;5860;52.018;8.536;2022-10-01T18:11:26;13.50;99.90
11609;DHT22;5860;52.018;8.536;2022-10-01T18:13:53;13.40;99.90
11609;DHT22;5860;52.018;8.536;2022-10-01T18:16:21;13.30;99.90
11609;DHT22;5860;52.018;8.536;2022-10-01T18:18:54;13.30;99.90
11609;DHT22;5860;52.018;8.536;2022-10-01T18:21:41;13.20;99.90
11609;DHT22;5860;52.018;8.536;2022-10-01T18:24:07;13.20;99.90
11609;DHT22;5860;52.018;8.536;2022-10-01T18:26:34;13.20;99.90
11609;DHT22;5860;52.018;8.536;2022-10-01T18:29:02;13.20;99.90
11609;DHT22;5860;52.018;8.536;2022-10-01T18:31:34;13.20;99.90